Time;durP1;ratioP1;P1;durP2;ratioP2;P2;SDS_P1;SDS_P2;PMS_P1;PMS_P2;Temp;Humidity;BMP_temperature;BMP_pressure;BME280_temperature;BME280_humidity;BME280_pressure;Samples;Min_cycle;Max_cycle;Signal;HPM_P1;HPM_P2
2022/03/10 00:00:44;;;;;;;13.33;11.73;;;;;;;3.52;63.29;102054.38;2090456;28;20196;-72
2022/03/10 00:01:44;;;;;;;14.77;11.97;;;;;;;3.72;63.58;102071.75;2090346;28;20508;-71
2022/03/10 00:02:45;;;;;;;15.03;12.80;;;;;;;3.74;64.03;102074.94;2090524;28;20340;-71
2022/03/10 00:03:45;;;;;;;13.50;11.93;;;;;;;3.79;64.17;102072.72;2090717;28;20227;-71
2022/03/10 00:04:46;;;;;;;17.90;12.57;;;;;;;3.72;64.48;102056.09;2090561;28;20671;-71
2022/03/10 00:05:47;;;;;;;15.70;12.00;;;;;;;3.78;63.53;102070.34;2090699;28;20189;-71
2022/03/10 00:06:47;;;;;;;14.93;12.07;;;;;;;3.85;64.45;102079.53;2090618;28;20183;-71
2022/03/10 00:07:48;;;;;;;15.13;12.73;;;;;;;3.87;64.35;102074.53;2090829;28;20198;-71
2022/03/10 00:08:49;;;;;;;15.17;12.30;;;;;;;3.40;63.40;101993.34;2090572;28;20182;-72
2022/03/10 00:09:49;;;;;;;15.93;12.07;;;;;;;3.50;63.64;102006.53;2090621;28;20213;-71
2022/03/10 00:10:50;;;;;;;13.23;11.80;;;;;;;3.94;63.35;102076.63;2090322;28;20204;-71
2022/03/10 00:11:50;;;;;;;14.47;12.13;;;;;;;3.51;63.59;102011.69;2090221;28;20261;-71
2022/03/10 00:12:52;;;;;;;14.90;11.77;;;;;;;3.92;63.84;102079.75;2090523;28;20562;-71
2022/03/10 00:13:53;;;;;;;14.77;12.75;;;;;;;3.92;63.90;102071.53;2089987;28;20194;-71
2022/03/10 00:14:54;;;;;;;15.83;11.90;;;;;;;3.92;63.91;102078.94;2090159;28;20188;-71
2022/03/10 00:15:54;;;;;;;15.83;11.90;;;;;;;2.57;63.43;101855.69;2090553;28;20706;-71
2022/03/10 00:16:55;;;;;;;14.53;12.17;;;;;;;3.98;63.05;102067.34;2090460;28;20569;-71
2022/03/10 00:17:56;;;;;;;15.13;11.90;;;;;;;3.95;63.44;102061.78;2090644;28;20230;-71
2022/03/10 00:18:56;;;;;;;14.53;11.60;;;;;;;3.47;63.82;102001.75;2090555;28;20652;-71
2022/03/10 00:19:57;;;;;;;14.97;11.57;;;;;;;3.81;63.24;102051.25;2090669;28;20183;-71
2022/03/10 00:20:58;;;;;;;14.43;11.87;;;;;;;3.90;63.66;102060.09;2090164;28;20647;-71
2022/03/10 00:21:59;;;;;;;14.23;11.23;;;;;;;3.87;63.70;102058.06;2090333;28;20194;-71
2022/03/10 00:22:59;;;;;;;14.20;11.80;;;;;;;3.88;63.09;102067.06;2089967;28;20186;-71
2022/03/10 00:24:00;;;;;;;14.87;12.07;;;;;;;3.86;63.34;102058.41;2089826;28;20557;-71
2022/03/10 00:25:00;;;;;;;12.63;10.90;;;;;;;3.75;63.38;102038.16;2090621;28;20185;-71
2022/03/10 00:26:01;;;;;;;12.93;11.13;;;;;;;3.93;63.06;102066.81;2089751;28;20180;-71
2022/03/10 00:27:01;;;;;;;12.93;10.90;;;;;;;3.90;62.79;102067.53;2090095;28;20182;-71
2022/03/10 00:28:02;;;;;;;13.73;11.03;;;;;;;3.89;62.53;102063.97;2090392;28;20661;-71
2022/03/10 00:29:03;;;;;;;14.13;11.33;;;;;;;3.87;62.47;102060.81;2090456;28;20209;-71
2022/03/10 00:30:05;;;;;;;12.07;10.75;;;;;;;3.29;62.85;101968.38;2089165;28;20191;-71
2022/03/10 00:31:05;;;;;;;12.35;9.82;;;;;;;3.76;63.03;102051.50;2089981;28;20179;-71
2022/03/10 00:32:06;;;;;;;11.43;9.93;;;;;;;3.78;63.14;102068.41;2090468;28;20176;-71
2022/03/10 00:33:07;;;;;;;13.07;10.23;;;;;;;3.77;63.28;102066.00;2089900;28;20181;-71
2022/03/10 00:34:08;;;;;;;12.43;10.43;;;;;;;3.78;63.59;102070.34;2087836;28;20614;-71
2022/03/10 00:35:09;;;;;;;11.60;10.03;;;;;;;3.72;63.48;102067.06;2090347;28;20573;-71
2022/03/10 00:36:09;;;;;;;11.73;10.00;;;;;;;2.93;63.38;101943.13;2090200;28;20265;-71
2022/03/10 00:37:10;;;;;;;11.70;9.50;;;;;;;3.68;62.95;102057.13;2088166;28;20190;-71
2022/03/10 00:38:11;;;;;;;11.50;9.80;;;;;;;3.56;63.24;102049.78;2090401;28;20215;-71
2022/03/10 00:39:11;;;;;;;11.40;9.73;;;;;;;3.68;63.59;102054.38;2090320;28;20541;-71
2022/03/10 00:40:13;;;;;;;12.93;10.67;;;;;;;3.74;64.44;102061.22;2090348;28;20194;-71
2022/03/10 00:41:13;;;;;;;11.70;9.80;;;;;;;3.77;63.32;102055.03;2089665;28;20179;-71
2022/03/10 00:42:14;;;;;;;12.27;10.67;;;;;;;3.77;63.47;102057.78;2090011;28;20179;-71
2022/03/10 00:43:15;;;;;;;11.90;10.23;;;;;;;3.64;63.21;102040.59;2090223;28;20581;-71
2022/03/10 00:44:16;;;;;;;10.83;9.27;;;;;;;3.76;63.58;102056.19;2090119;28;20174;-71
2022/03/10 00:45:18;;;;;;;12.43;9.75;;;;;;;3.25;62.96;101997.66;2090361;28;20177;-71
2022/03/10 00:46:18;;;;;;;11.77;9.48;;;;;;;2.97;63.62;101936.59;2090292;28;20550;-71
2022/03/10 00:47:19;;;;;;;11.87;9.40;;;;;;;3.72;63.61;102050.63;2090272;28;20196;-71
2022/03/10 00:48:19;;;;;;;11.73;9.90;;;;;;;3.52;63.24;102021.47;2089331;28;20191;-71
2022/03/10 00:49:20;;;;;;;12.47;9.13;;;;;;;3.54;62.88;102027.41;2089751;28;20215;-71
2022/03/10 00:50:20;;;;;;;10.53;9.00;;;;;;;3.71;63.42;102048.22;2090372;28;20179;-71
2022/03/10 00:51:21;;;;;;;9.67;8.63;;;;;;;3.66;63.96;102045.72;2089283;28;20586;-71
2022/03/10 00:52:21;;;;;;;10.60;9.33;;;;;;;3.64;63.18;102042.56;2090200;28;20169;-70
2022/03/10 00:53:22;;;;;;;11.77;9.67;;;;;;;3.48;63.18;102020.59;2090254;28;20178;-71
2022/03/10 00:54:23;;;;;;;10.90;9.33;;;;;;;3.66;62.99;102043.00;2090205;28;20209;-71
2022/03/10 00:55:23;;;;;;;10.97;9.13;;;;;;;3.68;63.12;102041.50;2090267;28;20173;-71
2022/03/10 00:56:24;;;;;;;10.67;8.87;;;;;;;3.71;62.61;102042.72;2090276;28;20203;-71
2022/03/10 00:57:24;;;;;;;10.70;9.07;;;;;;;3.25;62.61;101983.16;2090169;28;20179;-71
2022/03/10 00:58:25;;;;;;;10.03;8.60;;;;;;;3.38;62.67;102007.38;2090185;28;20269;-71
2022/03/10 00:59:25;;;;;;;11.40;8.50;;;;;;;3.21;62.21;101971.28;2090104;28;20182;-71
2022/03/10 01:00:28;;;;;;;12.03;8.70;;;;;;;3.19;62.44;101982.59;2090036;28;20547;-71
2022/03/10 01:01:28;;;;;;;10.05;8.48;;;;;;;2.92;61.92;101955.25;2089527;28;20187;-71
2022/03/10 01:02:34;;;;;;;10.10;8.70;;;;;;;2.99;62.59;101950.72;2090097;28;20223;-71
2022/03/10 01:03:34;;;;;;;10.15;8.70;;;;;;;3.65;62.87;102044.94;2090275;28;20174;-71
2022/03/10 01:04:35;;;;;;;11.40;9.27;;;;;;;3.43;62.70;102014.56;2089922;28;20266;-71
2022/03/10 01:05:35;;;;;;;10.30;8.47;;;;;;;3.38;62.09;102006.63;2090296;28;20281;-71
2022/03/10 01:06:38;;;;;;;9.47;8.17;;;;;;;3.63;61.97;102038.19;2090081;28;20281;-71
2022/03/10 01:07:39;;;;;;;10.32;8.88;;;;;;;3.62;62.26;102034.69;2090129;28;20186;-71
2022/03/10 01:08:40;;;;;;;11.33;8.70;;;;;;;3.15;62.06;101964.47;2090113;28;20266;-71
2022/03/10 01:09:40;;;;;;;10.63;8.83;;;;;;;3.01;62.54;101939.44;2090082;28;20199;-71
2022/03/10 01:10:41;;;;;;;10.50;8.90;;;;;;;3.57;62.50;102034.13;2090015;28;20608;-71
2022/03/10 01:11:41;;;;;;;13.23;8.97;;;;;;;3.59;62.71;102032.63;2089629;28;20257;-71
2022/03/10 01:12:45;;;;;;;12.63;8.63;;;;;;;3.60;62.26;102036.94;2090022;28;20190;-71
2022/03/10 01:13:45;;;;;;;10.95;8.60;;;;;;;2.71;62.62;101895.19;2090062;28;20260;-71
2022/03/10 01:14:46;;;;;;;10.47;8.30;;;;;;;3.55;62.83;102037.22;2089684;28;20308;-71
2022/03/10 01:15:47;;;;;;;12.37;8.73;;;;;;;3.52;62.67;102054.38;2090095;28;20182;-71
2022/03/10 01:16:47;;;;;;;9.73;8.53;;;;;;;3.11;62.69;101960.84;2089818;28;20660;-70
2022/03/10 01:17:49;;;;;;;10.60;8.13;;;;;;;3.54;62.86;102030.13;2090127;28;20336;-71
2022/03/10 01:18:49;;;;;;;10.80;8.63;;;;;;;3.49;62.44;102011.22;2089340;28;20215;-71
2022/03/10 01:19:50;;;;;;;10.10;8.30;;;;;;;2.42;62.90;101862.69;2089609;28;20228;-71
2022/03/10 01:20:50;;;;;;;11.27;9.03;;;;;;;3.57;63.04;102042.34;2089504;28;20182;-71
2022/03/10 01:21:51;;;;;;;13.60;9.33;;;;;;;3.59;63.10;102032.63;2089597;28;20195;-71
2022/03/10 01:22:52;;;;;;;11.47;9.13;;;;;;;2.44;62.52;101854.94;2090000;28;20206;-70
2022/03/10 01:23:52;;;;;;;11.93;8.93;;;;;;;3.55;63.51;102029.00;2090068;28;20181;-71
2022/03/10 01:24:53;;;;;;;10.97;8.83;;;;;;;3.07;62.91;101958.00;2089952;28;20184;-71
2022/03/10 01:25:53;;;;;;;11.23;8.77;;;;;;;3.58;62.69;102030.22;2090090;28;20183;-70
2022/03/10 01:26:54;;;;;;;11.90;9.50;;;;;;;3.56;63.02;102022.38;2089846;28;20691;-70
2022/03/10 01:27:55;;;;;;;10.63;8.87;;;;;;;3.54;63.38;102030.13;2090007;28;20191;-71
2022/03/10 01:28:55;;;;;;;11.80;8.87;;;;;;;3.57;63.20;102028.63;2089737;28;20219;-71
2022/03/10 01:29:56;;;;;;;10.80;8.73;;;;;;;3.01;62.83;101945.72;2089922;28;20217;-71
2022/03/10 01:30:56;;;;;;;11.67;8.47;;;;;;;2.26;63.02;101825.50;2089691;28;20743;-71
2022/03/10 01:31:57;;;;;;;10.83;9.17;;;;;;;3.57;63.12;102029.44;2089796;28;20213;-71
2022/03/10 01:32:57;;;;;;;9.63;8.53;;;;;;;2.63;62.75;101887.16;2089744;28;20183;-71
2022/03/10 01:33:59;;;;;;;10.77;8.87;;;;;;;3.57;62.67;102021.22;2089985;28;20178;-71
2022/03/10 01:35:01;;;;;;;10.50;8.18;;;;;;;3.56;62.17;102024.31;2089751;28;20172;-70
2022/03/10 01:36:02;;;;;;;11.13;8.45;;;;;;;3.19;63.01;101977.13;2089736;28;20184;-71
2022/03/10 01:37:02;;;;;;;12.97;9.00;;;;;;;3.53;63.23;102034.03;2089895;28;20512;-71
2022/03/10 01:38:03;;;;;;;9.70;8.30;;;;;;;3.53;62.71;102033.22;2089989;28;20606;-71
2022/03/10 01:39:04;;;;;;;10.77;8.83;;;;;;;2.65;62.77;101899.34;2090086;28;20213;-71
2022/03/10 01:40:10;;;;;;;10.90;8.53;;;;;;;3.52;62.30;102026.97;2089063;28;20185;-71
2022/03/10 01:41:11;;;;;;;10.98;9.30;;;;;;;3.55;62.79;102029.00;2088177;28;20185;-71
2022/03/10 01:42:12;;;;;;;11.47;8.90;;;;;;;3.54;62.88;102030.13;2089225;28;20173;-71
2022/03/10 01:43:12;;;;;;;12.43;9.00;;;;;;;3.40;62.89;102013.34;2089825;28;20179;-71
2022/03/10 01:44:13;;;;;;;10.57;9.10;;;;;;;3.32;62.64;102014.28;2089619;28;20223;-70
2022/03/10 01:45:14;;;;;;;12.20;9.27;;;;;;;3.38;63.16;102023.84;2089819;28;20313;-71
2022/03/10 01:46:15;;;;;;;10.50;8.52;;;;;;;3.26;64.00;101999.25;2089784;28;20232;-71
2022/03/10 01:47:15;;;;;;;9.70;8.70;;;;;;;3.44;63.95;102021.66;2090005;28;20636;-71
2022/03/10 01:48:16;;;;;;;11.17;9.27;;;;;;;3.45;63.49;102026.75;2089718;28;20318;-71
2022/03/10 01:49:17;;;;;;;10.47;8.83;;;;;;;3.22;63.03;101995.59;2089715;28;20177;-71
2022/03/10 01:50:17;;;;;;;11.03;9.00;;;;;;;3.35;62.70;102021.81;2089915;28;20743;-71
2022/03/10 01:51:18;;;;;;;10.40;8.93;;;;;;;3.02;62.97;101971.16;2088903;28;20310;-71
2022/03/10 01:52:20;;;;;;;11.18;8.63;;;;;;;3.46;63.06;102033.84;2089630;28;20699;-71
2022/03/10 01:53:20;;;;;;;10.35;8.70;;;;;;;3.47;62.88;102038.19;2089659;28;20180;-71
2022/03/10 01:54:21;;;;;;;11.30;8.47;;;;;;;2.90;62.92;101947.38;2089120;28;20494;-70
2022/03/10 01:55:22;;;;;;;9.67;8.57;;;;;;;3.47;62.67;102035.44;2089194;28;20200;-71
2022/03/10 01:56:24;;;;;;;11.00;8.90;;;;;;;3.47;62.75;102032.69;2089662;28;20325;-71
2022/03/10 01:57:25;;;;;;;12.13;9.18;;;;;;;3.40;62.71;102023.50;2089611;28;20180;-71
2022/03/10 01:58:26;;;;;;;10.13;9.00;;;;;;;3.21;62.73;102002.22;2088993;28;20281;-71
2022/03/10 01:59:27;;;;;;;10.65;8.73;;;;;;;3.33;63.49;102006.88;2089162;28;20252;-71
2022/03/10 02:00:27;;;;;;;11.50;8.47;;;;;;;3.03;63.31;101972.75;2089741;28;20184;-71
2022/03/10 02:01:28;;;;;;;11.03;8.67;;;;;;;3.45;62.59;102037.72;2089139;28;20581;-71
2022/03/10 02:02:29;;;;;;;10.25;8.65;;;;;;;3.46;62.86;102033.03;2089791;28;20253;-70
2022/03/10 02:03:30;;;;;;;10.80;8.37;;;;;;;2.43;63.04;101885.38;2089770;28;20181;-71
2022/03/10 02:04:30;;;;;;;11.03;9.10;;;;;;;3.47;62.74;102038.19;2089748;28;20720;-70
2022/03/10 02:05:31;;;;;;;11.43;9.23;;;;;;;3.34;63.23;102017.44;2089674;28;20180;-71
2022/03/10 02:06:32;;;;;;;12.13;9.20;;;;;;;2.04;62.90;101810.41;2089768;28;20176;-71
2022/03/10 02:10:18;;;;;;;11.02;8.52;;;;;;;3.48;62.97;102044.44;2089696;28;20164;-71
2022/03/10 02:11:19;;;;;;;9.88;8.48;;;;;;;3.49;62.48;102043.31;2088996;28;20153;-70
2022/03/10 02:12:20;;;;;;;12.07;9.07;;;;;;;3.49;62.63;102040.59;2088842;28;20220;-70
2022/03/10 02:13:20;;;;;;;10.63;8.77;;;;;;;3.30;62.59;102018.50;2089011;28;20211;-71
2022/03/10 02:17:21;;;;;;;11.43;9.18;;;;;;;3.35;63.29;102065.66;2089681;28;20171;-71
2022/03/10 02:18:21;;;;;;;11.60;9.00;;;;;;;2.59;63.73;101950.00;2089759;28;20270;-72
2022/03/10 02:19:22;;;;;;;10.97;9.20;;;;;;;3.26;63.14;102042.28;2089649;28;20634;-71
2022/03/10 02:20:23;;;;;;;11.57;9.23;;;;;;;2.80;63.12;101983.44;2089691;28;20171;-71
2022/03/10 02:21:26;;;;;;;12.63;10.10;;;;;;;3.16;64.15;102027.13;2089031;28;20717;-71
2022/03/10 02:22:27;;;;;;;11.52;9.35;;;;;;;3.31;62.89;102036.53;2089552;28;20168;-71
2022/03/10 02:23:28;;;;;;;12.77;9.95;;;;;;;3.29;63.07;102034.16;2089507;28;20262;-71
2022/03/10 02:24:28;;;;;;;12.33;9.13;;;;;;;3.25;62.82;102036.00;2089449;28;20180;-71
2022/03/10 02:25:29;;;;;;;12.63;10.23;;;;;;;2.50;63.29;101921.16;2088949;28;20176;-70
2022/03/10 02:26:29;;;;;;;11.77;9.50;;;;;;;2.97;62.88;101985.13;2089010;28;20172;-71
2022/03/10 02:27:30;;;;;;;13.43;9.50;;;;;;;3.12;63.40;102018.03;2089739;28;20318;-71
2022/03/10 02:28:32;;;;;;;11.57;9.67;;;;;;;3.05;63.41;102000.59;2089594;28;20176;-71
2022/03/10 02:29:33;;;;;;;12.00;9.93;;;;;;;3.30;63.72;102048.66;2089753;28;20200;-71
2022/03/10 02:30:35;;;;;;;12.90;9.63;;;;;;;3.31;62.70;102040.09;2089798;28;20740;-71
2022/03/10 02:31:36;;;;;;;12.27;9.25;;;;;;;3.24;62.64;102039.09;2088948;28;20594;-71
2022/03/10 02:32:36;;;;;;;12.27;9.63;;;;;;;2.83;62.59;101985.47;2089449;28;20178;-71
2022/03/10 02:33:37;;;;;;;12.13;9.43;;;;;;;3.33;63.17;102053.44;2089596;28;20176;-70
2022/03/10 02:34:39;;;;;;;10.90;9.23;;;;;;;3.34;63.06;102061.28;2089289;28;20606;-71
2022/03/10 02:35:39;;;;;;;11.60;9.43;;;;;;;3.35;62.70;102053.88;2089559;28;20208;-71
2022/03/10 02:36:40;;;;;;;11.43;9.70;;;;;;;3.17;62.31;102036.94;2089403;28;20183;-71
2022/03/10 02:37:41;;;;;;;10.43;9.30;;;;;;;2.84;62.52;101992.56;2089347;28;20180;-70
2022/03/10 02:38:42;;;;;;;11.38;9.27;;;;;;;2.72;62.43;101956.22;2089437;28;20173;-71
2022/03/10 02:39:44;;;;;;;12.53;10.00;;;;;;;3.29;62.54;102056.06;2089619;28;20255;-71
2022/03/10 02:40:47;;;;;;;12.38;10.18;;;;;;;3.27;62.98;102055.63;2088990;28;20188;-71
2022/03/10 02:41:48;;;;;;;11.07;9.77;;;;;;;2.46;62.30;101928.47;2089219;28;20688;-71
2022/03/10 02:42:48;;;;;;;13.13;10.20;;;;;;;3.23;62.62;102054.72;2088784;28;20587;-71
2022/03/10 02:43:49;;;;;;;12.27;10.00;;;;;;;3.21;62.50;102054.28;2088917;28;20271;-71
2022/03/10 02:44:49;;;;;;;11.47;9.97;;;;;;;1.80;62.65;101839.75;2089251;28;20229;-71
2022/03/10 02:45:51;;;;;;;12.73;9.83;;;;;;;3.18;62.84;102063.19;2089495;28;20187;-71
2022/03/10 02:46:52;;;;;;;10.55;9.38;;;;;;;3.18;63.01;102065.16;2089281;28;20691;-71
2022/03/10 02:47:52;;;;;;;12.07;9.77;;;;;;;2.68;63.20;101988.94;2089477;28;20200;-70
2022/03/10 02:48:53;;;;;;;12.43;9.70;;;;;;;2.40;62.96;101949.81;2082258;28;20188;-71
2022/03/10 02:49:54;;;;;;;11.30;9.57;;;;;;;2.51;62.86;101958.34;2081149;28;20209;-71
2022/03/10 02:50:54;;;;;;;11.30;9.23;;;;;;;3.17;63.37;102067.06;2080547;28;20397;-70
2022/03/10 02:51:55;;;;;;;11.80;10.00;;;;;;;3.20;63.00;102065.59;2080999;28;20695;-71
2022/03/10 02:52:55;;;;;;;12.90;10.23;;;;;;;3.15;62.71;102060.34;2080600;28;20177;-70
2022/03/10 02:53:56;;;;;;;11.13;9.63;;;;;;;3.12;63.48;102067.31;2080853;28;20176;-70
2022/03/10 02:54:57;;;;;;;12.27;10.10;;;;;;;3.12;63.37;102063.78;2081186;28;20177;-70
2022/03/10 02:55:57;;;;;;;11.87;9.27;;;;;;;3.13;62.42;102070.88;2081236;28;20200;-71
2022/03/10 02:56:59;;;;;;;12.50;9.77;;;;;;;1.94;63.22;101875.69;2080978;28;20501;-70
2022/03/10 02:57:59;;;;;;;12.25;9.32;;;;;;;3.11;62.92;102052.03;2081246;28;20173;-71
2022/03/10 02:59:00;;;;;;;10.17;9.03;;;;;;;3.05;63.26;102050.69;2081096;28;20181;-70
2022/03/10 03:00:01;;;;;;;10.30;9.07;;;;;;;3.17;63.18;102085.44;2081084;28;20172;-70
2022/03/10 03:01:01;;;;;;;11.90;9.37;;;;;;;3.21;62.92;102069.91;2088936;28;20214;-70
2022/03/10 03:02:02;;;;;;;11.87;9.70;;;;;;;3.19;62.57;102062.03;2089127;28;20255;-70
2022/03/10 03:03:03;;;;;;;12.85;9.55;;;;;;;3.19;62.57;102073.00;2089299;28;20267;-70
2022/03/10 03:04:04;;;;;;;11.73;9.67;;;;;;;3.21;63.16;102092.63;2089366;28;20638;-70
2022/03/10 03:05:06;;;;;;;13.10;9.23;;;;;;;3.17;63.61;102069.81;2089344;28;20175;-71
2022/03/10 03:06:07;;;;;;;12.70;9.50;;;;;;;2.69;63.09;101998.78;2089379;28;20672;-71
2022/03/10 03:07:07;;;;;;;11.20;8.80;;;;;;;1.75;63.32;101850.91;2089304;28;20554;-70
2022/03/10 03:08:08;;;;;;;12.03;9.90;;;;;;;2.38;63.46;101973.19;2089329;28;20176;-70
2022/03/10 03:09:09;;;;;;;11.23;9.00;;;;;;;3.18;63.51;102078.84;2089308;28;20664;-71
2022/03/10 03:10:10;;;;;;;10.83;9.20;;;;;;;2.63;62.84;101982.94;2089284;28;20172;-71
2022/03/10 03:11:11;;;;;;;12.05;9.63;;;;;;;3.06;63.25;102068.72;2088796;28;20620;-70
2022/03/10 03:12:12;;;;;;;12.33;9.23;;;;;;;3.17;62.64;102071.75;2089216;28;20172;-71
2022/03/10 03:13:12;;;;;;;10.37;9.00;;;;;;;3.14;63.21;102077.94;2089229;28;20172;-70
2022/03/10 03:14:13;;;;;;;12.90;10.20;;;;;;;2.94;62.92;102032.34;2088514;28;20183;-70
2022/03/10 03:15:15;;;;;;;11.00;9.20;;;;;;;3.22;62.97;102082.47;2088656;28;20183;-71
2022/03/10 03:16:15;;;;;;;11.68;8.95;;;;;;;3.18;62.93;102076.88;2089310;28;20203;-71
2022/03/10 03:17:16;;;;;;;10.90;9.03;;;;;;;3.01;62.87;102049.78;2089171;28;20168;-71
2022/03/10 03:18:16;;;;;;;11.23;9.30;;;;;;;3.15;63.06;102074.84;2089276;28;20169;-70
2022/03/10 03:19:17;;;;;;;10.17;8.80;;;;;;;3.14;62.71;102069.72;2088651;28;20271;-70
2022/03/10 03:20:17;;;;;;;11.63;9.20;;;;;;;3.16;62.47;102075.63;2088676;28;20169;-71
2022/03/10 03:21:19;;;;;;;11.17;9.27;;;;;;;2.75;62.67;102008.34;2088801;28;20172;-71
2022/03/10 03:22:20;;;;;;;12.10;8.57;;;;;;;3.20;62.82;102071.88;2089220;28;20176;-70
2022/03/10 03:23:23;;;;;;;11.70;9.03;;;;;;;3.19;63.04;102073.00;2089333;28;20681;-71
2022/03/10 03:24:24;;;;;;;11.73;8.98;;;;;;;3.13;62.64;102076.34;2089150;28;20191;-70
2022/03/10 03:25:24;;;;;;;11.40;9.10;;;;;;;3.08;62.53;102071.91;2088592;28;20181;-70
2022/03/10 03:26:25;;;;;;;11.13;8.70;;;;;;;3.04;62.71;102073.72;2088621;28;20215;-70
2022/03/10 03:27:25;;;;;;;10.87;9.00;;;;;;;2.70;62.92;102025.00;2089240;28;20188;-71
2022/03/10 03:28:26;;;;;;;12.83;9.10;;;;;;;2.96;62.82;102074.69;2089137;28;20211;-70
2022/03/10 03:29:27;;;;;;;10.43;8.50;;;;;;;2.93;62.76;102074.56;2089094;28;20200;-70
2022/03/10 03:30:27;;;;;;;10.93;9.20;;;;;;;2.88;63.08;102063.84;2089261;28;20172;-70
2022/03/10 03:31:28;;;;;;;11.43;9.23;;;;;;;2.96;63.57;102077.41;2088700;28;20723;-71
2022/03/10 03:32:28;;;;;;;11.73;9.20;;;;;;;1.94;63.21;101906.56;2089221;28;20646;-70
2022/03/10 03:33:30;;;;;;;10.57;8.87;;;;;;;2.78;63.52;102045.16;2088541;28;20172;-70
2022/03/10 03:34:31;;;;;;;12.13;9.73;;;;;;;2.96;62.97;102074.69;2088553;28;20610;-70
2022/03/10 03:35:32;;;;;;;11.85;9.48;;;;;;;2.86;63.86;102060.66;2089210;28;20661;-71
2022/03/10 03:36:32;;;;;;;12.40;9.60;;;;;;;2.99;63.24;102075.91;2089143;28;20558;-70
2022/03/10 03:37:33;;;;;;;12.50;8.83;;;;;;;2.96;63.75;102079.34;2089208;28;20176;-70
2022/03/10 03:38:33;;;;;;;12.27;9.43;;;;;;;2.84;63.48;102060.22;2089160;28;20728;-71
2022/03/10 03:39:34;;;;;;;11.03;8.97;;;;;;;2.95;64.23;102084.03;2089186;28;20622;-70
2022/03/10 03:40:35;;;;;;;12.40;9.70;;;;;;;2.93;63.68;102083.56;2089187;28;20637;-70
2022/03/10 03:41:36;;;;;;;10.40;8.68;;;;;;;2.29;63.36;101992.47;2088678;28;20204;-71
2022/03/10 03:42:37;;;;;;;10.60;9.13;;;;;;;2.88;63.21;102080.28;2089112;28;20665;-70
2022/03/10 03:43:37;;;;;;;12.43;9.37;;;;;;;2.84;63.53;102082.13;2089167;28;20414;-70
2022/03/10 03:44:38;;;;;;;10.10;8.60;;;;;;;2.85;63.71;102091.91;2089103;28;20230;-70
2022/03/10 03:45:38;;;;;;;10.90;9.03;;;;;;;2.85;64.50;102090.00;2089157;28;20180;-70
2022/03/10 03:46:40;;;;;;;12.70;8.83;;;;;;;2.85;63.93;102100.13;2088481;28;20208;-70
2022/03/10 03:47:40;;;;;;;9.85;8.32;;;;;;;2.45;63.66;102059.00;2088655;28;20187;-70
2022/03/10 03:48:41;;;;;;;11.00;8.73;;;;;;;2.82;64.34;102123.53;2089019;28;20192;-71
2022/03/10 03:49:42;;;;;;;9.90;8.43;;;;;;;1.50;63.27;101893.03;2089226;28;20196;-70
2022/03/10 03:50:42;;;;;;;11.13;9.10;;;;;;;2.71;63.21;102070.38;2088931;28;20720;-70
2022/03/10 03:51:43;;;;;;;9.30;8.07;;;;;;;2.93;63.43;102105.47;2088070;28;20259;-70
2022/03/10 03:52:43;;;;;;;10.60;8.70;;;;;;;2.89;63.04;102096.38;2088599;28;20176;-70
2022/03/10 03:53:44;;;;;;;10.30;8.60;;;;;;;1.64;63.57;101920.84;2089334;28;20638;-72
2022/03/10 03:54:44;;;;;;;10.23;8.30;;;;;;;2.71;62.93;102075.84;2089057;28;20781;-70
2022/03/10 03:55:45;;;;;;;11.63;8.50;;;;;;;2.87;62.85;102100.59;2089249;28;20180;-70
2022/03/10 03:56:45;;;;;;;11.07;8.63;;;;;;;2.70;63.00;102095.34;2088996;28;20260;-71
2022/03/10 03:57:46;;;;;;;10.80;8.53;;;;;;;2.82;62.63;102098.88;2089200;28;20242;-70
2022/03/10 03:58:46;;;;;;;9.23;8.20;;;;;;;2.30;63.32;102032.34;2088987;28;20569;-70
2022/03/10 03:59:47;;;;;;;10.00;7.77;;;;;;;2.78;62.95;102103.44;2089257;28;20172;-70
2022/03/10 04:00:47;;;;;;;10.20;7.67;;;;;;;1.56;63.14;101921.72;2088699;28;20206;-70
2022/03/10 04:01:48;;;;;;;9.97;8.33;;;;;;;2.71;63.56;102110.63;2088345;28;20221;-71
2022/03/10 04:02:48;;;;;;;10.60;8.77;;;;;;;2.72;62.96;102115.78;2088481;28;20176;-70
2022/03/10 04:03:50;;;;;;;10.03;8.30;;;;;;;2.53;62.71;102081.94;2089186;28;20214;-70
2022/03/10 04:04:52;;;;;;;10.05;8.02;;;;;;;2.32;62.68;102053.88;2090262;28;20184;-71
2022/03/10 04:05:53;;;;;;;9.98;8.00;;;;;;;2.62;62.40;102110.75;2090598;28;20198;-70
2022/03/10 04:06:54;;;;;;;9.88;7.97;;;;;;;1.26;62.86;101910.19;2090741;28;20202;-71
2022/03/10 04:07:54;;;;;;;11.40;8.27;;;;;;;2.54;63.14;102125.38;2090706;28;20180;-70
2022/03/10 04:08:55;;;;;;;10.63;8.23;;;;;;;2.54;63.62;102119.09;2090524;28;20184;-70
2022/03/10 04:09:56;;;;;;;12.17;10.33;;;;;;;2.53;63.31;102128.44;2090572;28;20200;-71
2022/03/10 04:10:56;;;;;;;13.07;11.20;;;;;;;2.54;62.83;102124.56;2090195;28;20628;-70
2022/03/10 04:11:57;;;;;;;12.43;9.93;;;;;;;2.27;63.08;102089.69;2090405;28;20222;-71
2022/03/10 04:12:58;;;;;;;11.27;9.33;;;;;;;2.52;63.45;102137.81;2090518;28;20206;-71
2022/03/10 04:13:59;;;;;;;11.65;10.02;;;;;;;2.47;63.49;102127.88;2090669;28;20176;-70
2022/03/10 04:14:59;;;;;;;10.67;8.67;;;;;;;2.48;63.00;102129.47;2090652;28;20658;-71
2022/03/10 04:16:00;;;;;;;10.20;8.43;;;;;;;2.49;63.14;102131.06;2090655;28;20625;-70
2022/03/10 04:17:01;;;;;;;9.87;8.17;;;;;;;2.46;63.39;102129.00;2090393;28;20187;-70
2022/03/10 04:18:01;;;;;;;9.53;7.47;;;;;;;2.44;63.01;102130.50;2090485;28;20258;-70
2022/03/10 04:19:02;;;;;;;10.27;8.43;;;;;;;2.34;62.71;102123.53;2090514;28;20172;-70
2022/03/10 04:20:03;;;;;;;11.67;8.70;;;;;;;2.41;63.37;102137.44;2090574;28;20175;-70
2022/03/10 04:21:03;;;;;;;10.30;8.67;;;;;;;1.90;63.23;102083.34;2090285;28;20169;-70
2022/03/10 04:22:05;;;;;;;10.00;8.03;;;;;;;2.36;62.83;102139.63;2090355;28;20611;-70
2022/03/10 04:23:06;;;;;;;11.32;7.88;;;;;;;2.29;62.99;102144.84;2090510;28;20723;-70
2022/03/10 04:24:07;;;;;;;10.60;8.67;;;;;;;2.28;63.35;102141.31;2090219;28;20602;-71
2022/03/10 04:25:08;;;;;;;10.83;8.33;;;;;;;1.70;63.30;102047.91;2090441;28;20172;-71
2022/03/10 04:26:09;;;;;;;10.07;8.40;;;;;;;1.42;63.59;102001.28;2090219;28;20234;-70
2022/03/10 04:27:09;;;;;;;11.67;8.47;;;;;;;2.21;63.59;102141.06;2090493;28;20263;-71
2022/03/10 04:28:10;;;;;;;9.97;8.27;;;;;;;2.10;63.61;102123.50;2090398;28;20626;-70
2022/03/10 04:29:12;;;;;;;12.40;8.17;;;;;;;0.74;63.77;101908.34;2090348;28;20187;-70
2022/03/10 04:30:13;;;;;;;9.77;7.85;;;;;;;2.22;63.49;102137.19;2090515;28;20642;-71
2022/03/10 04:31:13;;;;;;;9.73;7.57;;;;;;;2.17;63.71;102142.09;2089645;28;20179;-71
2022/03/10 04:32:14;;;;;;;9.93;8.00;;;;;;;1.91;63.37;102106.81;2090274;28;20164;-71
2022/03/10 04:33:15;;;;;;;10.43;8.17;;;;;;;1.74;63.56;102104.28;2089502;28;20191;-71
2022/03/10 04:34:15;;;;;;;11.47;7.90;;;;;;;2.10;64.08;102139.91;2089740;28;20204;-71
2022/03/10 04:35:17;;;;;;;10.70;8.20;;;;;;;1.88;63.53;102114.91;2090419;28;20179;-71
2022/03/10 04:36:18;;;;;;;9.55;8.15;;;;;;;2.08;63.53;102150.41;2089433;28;20208;-70
2022/03/10 04:37:18;;;;;;;10.00;7.77;;;;;;;1.13;63.56;102003.34;2081279;28;20177;-70
2022/03/10 04:38:19;;;;;;;9.53;7.93;;;;;;;1.98;63.94;102150.81;2089601;28;20207;-71
2022/03/10 04:39:20;;;;;;;9.63;8.03;;;;;;;1.51;63.60;102077.66;2090363;28;20610;-71
2022/03/10 04:40:21;;;;;;;9.53;7.70;;;;;;;1.49;64.09;102074.50;2090183;28;20234;-71
2022/03/10 04:41:22;;;;;;;9.68;7.93;;;;;;;1.31;64.00;102046.53;2089318;28;20172;-71
2022/03/10 04:42:22;;;;;;;9.17;8.00;;;;;;;1.75;64.13;102116.00;2090310;28;20564;-71
2022/03/10 04:43:23;;;;;;;8.93;7.83;;;;;;;0.90;64.62;102005.63;2089488;28;20616;-71
2022/03/10 04:44:23;;;;;;;9.33;7.70;;;;;;;1.36;64.30;102064.63;2089296;28;20172;-71
2022/03/10 04:45:24;;;;;;;11.10;7.77;;;;;;;1.75;63.84;102143.34;2089637;28;20182;-70
2022/03/10 04:46:24;;;;;;;9.30;7.17;;;;;;;1.77;64.02;102161.00;2081887;28;20184;-70
2022/03/10 04:47:25;;;;;;;12.07;8.13;;;;;;;1.73;64.71;102164.72;2083154;28;20284;-71
2022/03/10 04:48:26;;;;;;;10.37;7.80;;;;;;;1.63;65.07;102154.22;2089461;28;20237;-71